Latest Weather Observations for Tasman Island

IDT60801

Issued at 2:21 am EST Tuesday 20 April 2021 (issued every 10 minutes, with the page automatically refreshed every 10 minutes)

About weather observations | Map of weather stations | Latest weather observations for TAS | Other Formats
Station Details ID: 094155 Name: TASMAN ISLAND Lat: -43.24 Lon: 148.00 Height: 240.0 m
Data from the previous 72 hours. | See also: Recent months at Tasman Island
Date/Time
EST
Temp
°C
App
Temp
°C
Dew
Point
°C
Rel
Hum
%
Delta-T
°C
Wind Press
QNH
hPa
Press
MSL
hPa
Rain since
9am
mm
Dir  Spd
km/h
Gust
km/h
Spd
kts
Gust
kts
20/02:00am 14.0 7.1 7.3 64 3.3 NNW 33 56 18 30 1000.4 1000.3 0.0
20/01:30am 13.9 6.2 7.0 63 3.4 NNW 37 59 20 32 1000.4 1000.3 0.0
20/01:00am 13.9 7.1 6.7 62 3.5 NNW 32 56 17 30 1000.6 1000.5 0.0
20/12:30am 14.0 6.9 6.4 60 3.7 NW 33 54 18 29 1001.0 1000.9 0.0
20/12:03am 14.2 7.7 6.3 59 3.8 NNW 30 50 16 27 1001.1 1001.0 0.0
20/12:00am 14.1 7.0 6.2 59 3.9 NNW 33 50 18 27 1001.1 1001.0 0.0
 
Date/Time
EST
Temp
°C
App
Temp
°C
Dew
Point
°C
Rel
Hum
%
Delta-T
°C
Wind Press
QNH
hPa
Press
MSL
hPa
Rain since
9am
mm
Dir  Spd
km/h
Gust
km/h
Spd
kts
Gust
kts
19/11:30pm 14.1 5.8 6.2 59 3.8 NW 39 59 21 32 1001.1 1001.0 0.0
19/11:00pm 14.2 3.4 6.1 58 3.9 NW 52 72 28 39 1001.4 1001.2 0.0
19/10:30pm 14.4 2.7 6.0 57 4.1 NW 57 82 31 44 1001.1 1001.0 0.0
19/10:00pm 14.2 2.9 5.6 56 4.1 NW 54 76 29 41 1001.1 1001.0 0.0
19/09:35pm 14.2 3.7 5.6 56 4.1 NW 50 69 27 37 1001.6 1001.4 0.0
19/09:30pm 14.2 2.9 5.6 56 4.1 NW 54 72 29 39 1001.9 1001.7 0.0
19/09:00pm 14.1 4.3 5.2 55 4.2 NW 46 74 25 40 1002.2 1002.0 0.0
19/08:41pm 14.2 2.9 5.3 55 4.2 NW 54 72 29 39 1001.9 1001.7 0.0
19/08:30pm 14.4 3.0 5.0 53 4.5 NW 54 70 29 38 1001.8 1001.6 0.0
19/08:00pm 14.3 2.8 4.6 52 4.6 NW 54 74 29 40 1001.9 1001.7 0.0
19/07:33pm 14.4 4.7 4.1 50 4.8 NW 44 67 24 36 1002.4 1002.2 0.0
19/07:30pm 14.5 4.9 4.2 50 4.8 NW 44 61 24 33 1002.4 1002.2 0.0
19/07:16pm 14.5 7.1 3.9 49 4.9 NW 32 54 17 29 1003.1 1003.0 0.0
19/07:00pm 14.3 8.4 5.7 56 4.2 NW 26 37 14 20 1003.3 1003.2 0.0
19/06:30pm 14.4 8.6 6.3 58 3.9 NW 26 43 14 23 1003.4 1003.3 0.0
19/06:00pm 15.2 7.8 5.1 51 4.8 NW 33 50 18 27 1003.5 1003.4 0.0
19/05:55pm 15.2 8.0 5.1 51 4.8 WNW 32 50 17 27 1003.5 1003.4 0.0
19/05:30pm 15.0 8.4 4.4 49 5.0 NW 28 41 15 22 1003.3 1003.2 0.0
19/05:12pm 15.1 7.7 4.2 48 5.1 NW 32 50 17 27 1003.3 1003.2 0.0
19/05:00pm 15.0 8.8 4.1 48 5.1 NW 26 41 14 22 1003.4 1003.3 0.0
19/04:30pm 15.2 9.5 5.1 51 4.8 WNW 24 37 13 20 1003.6 1003.5 0.0
19/04:00pm 15.5 9.3 6.0 53 4.7 NW 28 46 15 25 1003.8 1003.7 0.0
19/03:34pm 15.7 9.5 6.2 53 4.7 WNW 28 46 15 25 1004.1 1004.0 0.0
19/03:30pm 15.8 10.0 6.3 53 4.7 WNW 26 46 14 25 1004.2 1004.1 0.0
19/03:22pm 16.1 11.5 6.3 52 4.8 WNW 20 43 11 23 1004.2 1004.1 0.0
19/03:00pm 15.6 13.6 7.1 57 4.3 W 7 19 4 10 1004.4 1004.3 0.0
19/02:30pm 16.0 9.1 6.4 53 4.7 NW 32 44 17 24 1004.6 1004.5 0.0
19/02:00pm 16.3 9.2 6.2 51 5.0 NW 33 54 18 29 1004.6 1004.5 0.0
19/01:48pm 16.6 10.5 6.4 51 5.1 NW 28 46 15 25 1004.7 1004.6 0.0
19/01:30pm 17.1 13.2 7.2 52 5.0 NW 17 32 9 17 1005.0 1004.9 0.0
19/01:00pm 15.3 9.1 6.3 55 4.4 NW 28 44 15 24 1005.4 1005.3 0.0
19/12:30pm 15.7 9.9 6.4 54 4.6 NW 26 39 14 21 1006.1 1006.0 0.0
19/12:00pm 15.2 10.0 7.3 59 4.0 NW 24 35 13 19 1006.7 1006.6 0.0
19/11:30am 14.8 9.5 6.6 58 4.0 NW 24 35 13 19 1007.1 1007.0 0.0
19/11:00am 14.8 10.2 6.6 58 4.0 NW 20 33 11 18 1007.4 1007.3 0.0
19/10:30am 14.5 9.2 6.8 60 3.8 NW 24 39 13 21 1007.6 1007.5 0.0
19/10:00am 13.9 8.9 6.5 61 3.6 NW 22 32 12 17 1007.8 1007.7 0.0
19/09:30am 13.7 7.7 7.0 64 3.3 NW 28 39 15 21 1008.1 1008.0 0.0
19/09:00am 13.1 7.4 6.5 64 3.2 NW 26 39 14 21 1008.4 1008.3 0.0
19/08:30am 13.3 7.5 6.2 62 3.4 NW 26 35 14 19 1008.5 1008.4 0.0
19/08:00am 12.9 7.9 6.5 65 3.1 NW 22 33 12 18 1008.6 1008.5 0.0
19/07:30am 12.1 7.0 5.9 66 2.9 NW 22 32 12 17 1008.6 1008.5 0.0
19/07:00am 11.9 6.0 5.8 66 2.9 NW 26 35 14 19 1008.5 1008.4 0.0
19/06:30am 11.2 6.7 6.1 71 2.4 NW 19 24 10 13 1008.6 1008.5 0.0
19/06:00am 11.0 6.6 6.4 73 2.2 NW 19 28 10 15 1008.6 1008.5 0.0
19/05:30am 10.9 6.8 6.3 73 2.2 NNW 17 30 9 16 1008.6 1008.5 0.0
19/05:00am 11.0 6.5 6.2 72 2.3 NW 19 26 10 14 1008.8 1008.7 0.0
19/04:30am 11.4 5.5 5.9 69 2.6 NW 26 33 14 18 1008.9 1008.8 0.0
19/04:00am 11.5 5.6 5.8 68 2.7 NW 26 37 14 20 1008.6 1008.5 0.0
19/03:30am 11.7 4.7 5.8 67 2.8 NW 32 43 17 23 1008.6 1008.5 0.0
19/03:00am 11.7 5.8 5.8 67 2.8 NW 26 39 14 21 1009.1 1009.0 0.0
19/02:30am 11.6 7.4 5.7 67 2.8 NW 17 24 9 13 1009.7 1009.7 0.0
19/02:00am 11.9 6.0 6.0 67 2.8 WNW 26 46 14 25 1010.2 1010.1 0.0
19/01:57am 11.8 5.5 5.9 67 2.8 WNW 28 46 15 25 1010.2 1010.1 0.0
19/01:30am 12.0 5.8 6.3 68 2.7 WNW 28 43 15 23 1010.4 1010.3 0.0
19/01:00am 11.9 7.2 6.2 68 2.7 WNW 20 32 11 17 1010.8 1010.7 0.0
19/12:30am 12.1 6.3 6.2 67 2.8 WNW 26 37 14 20 1010.4 1010.3 0.0
19/12:00am 12.2 6.4 6.3 67 2.8 WNW 26 37 14 20 1010.4 1010.3 0.0
 
Date/Time
EST
Temp
°C
App
Temp
°C
Dew
Point
°C
Rel
Hum
%
Delta-T
°C
Wind Press
QNH
hPa
Press
MSL
hPa
Rain since
9am
mm
Dir  Spd
km/h
Gust
km/h
Spd
kts
Gust
kts
18/11:30pm 12.3 5.7 5.9 65 3.0 NW 30 44 16 24 1010.2 1010.1 0.0
18/11:00pm 12.3 4.8 6.4 67 2.8 WNW 35 48 19 26 1010.6 1010.5 0.0
18/10:30pm 12.5 6.9 7.0 69 2.7 WNW 26 41 14 22 1011.3 1011.2 0.0
18/10:00pm 12.4 8.2 7.3 71 2.5 WNW 19 33 10 18 1011.6 1011.5 0.0
18/09:30pm 12.5 7.7 7.4 71 2.5 WNW 22 32 12 17 1011.6 1011.5 0.0
18/09:00pm 12.0 8.8 8.5 79 1.8 NW 15 22 8 12 1011.7 1011.6 0.0
18/08:30pm 12.3 10.4 9.1 81 1.6 WNW 9 13 5 7 1012.2 1012.1 0.0
18/08:00pm 12.4 11.0 8.9 79 1.8 WNW 6 13 3 7 1012.4 1012.3 0.0
18/07:30pm 12.8 11.8 8.9 77 2.0 WNW 4 7 2 4 1012.4 1012.3 0.0
18/07:00pm 12.6 11.0 8.7 77 2.0 WNW 7 11 4 6 1012.4 1012.3 0.0
18/06:30pm 12.8 11.2 8.7 76 2.1 W 7 15 4 8 1012.3 1012.2 0.0
18/06:00pm 13.0 10.6 8.7 75 2.2 WNW 11 17 6 9 1012.1 1012.0 0.0
18/05:30pm 13.2 11.7 8.5 73 2.4 WNW 6 11 3 6 1012.1 1012.0 0.0
18/05:00pm 13.4 12.7 8.5 72 2.5 ESE 2 6 1 3 1012.1 1012.0 0.0
18/04:30pm 13.9 12.1 8.1 68 2.9 W 7 15 4 8 1012.2 1012.1 0.0
18/04:00pm 14.2 12.5 8.4 68 2.9 W 7 13 4 7 1012.5 1012.4 0.0
18/03:30pm 13.9 12.4 8.3 69 2.8 W 6 13 3 7 1012.5 1012.4 0.0
18/03:00pm 13.7 12.0 8.3 70 2.7 WNW 7 17 4 9 1012.4 1012.3 0.0
18/02:30pm 13.7 11.9 8.1 69 2.8 WNW 7 19 4 10 1012.4 1012.3 0.0
18/02:00pm 13.9 11.0 8.1 68 2.9 NW 13 33 7 18 1012.4 1012.3 0.0
18/01:30pm 14.1 11.8 7.4 64 3.3 WNW 9 35 5 19 1012.6 1012.5 0.0
18/01:00pm 14.2 12.0 7.7 65 3.3 WNW 9 28 5 15 1013.0 1012.9 0.0
18/12:30pm 13.9 10.8 7.2 64 3.3 W 13 33 7 18 1013.3 1013.3 0.0
18/12:00pm 14.9 12.8 8.2 64 3.4 NW 9 26 5 14 1013.8 1013.8 0.0
18/11:30am 14.4 11.8 7.7 64 3.4 WNW 11 28 6 15 1014.0 1014.0 0.0
18/11:00am 14.4 11.4 7.9 65 3.3 WNW 13 28 7 15 1014.2 1014.2 0.0
18/10:30am 14.2 12.1 8.2 67 3.0 W 9 28 5 15 1014.3 1014.3 0.0
18/10:00am 13.5 10.5 7.5 67 3.0 W 13 33 7 18 1014.7 1014.6 0.0
18/09:30am 12.9 9.9 7.6 70 2.6 WNW 13 28 7 15 1014.7 1014.6 0.0
18/09:00am 12.8 8.6 7.3 69 2.7 WNW 19 41 10 22 1014.5 1014.4 0.0
18/08:30am 12.5 7.2 6.8 68 2.8 WNW 24 39 13 21 1014.2 1014.2 0.0
18/08:00am 12.6 8.2 7.3 70 2.6 WNW 20 37 11 20 1014.1 1014.1 0.0
18/07:30am 12.0 7.7 7.1 72 2.4 WNW 19 33 10 18 1014.0 1014.0 0.0
18/07:00am 11.7 9.3 7.0 73 2.3 WNW 9 28 5 15 1013.6 1013.6 0.0
18/06:30am 11.5 7.5 6.8 73 2.3 WNW 17 35 9 19 1013.3 1013.3 0.0
18/06:00am 11.4 5.7 6.7 73 2.3 WNW 26 37 14 20 1013.6 1013.6 0.0
18/05:30am 11.3 6.0 6.6 73 2.3 WNW 24 39 13 21 1013.5 1013.5 0.0
18/05:00am 11.3 5.9 6.2 71 2.4 WNW 24 37 13 20 1013.5 1013.5 0.0
18/04:30am 11.1 6.5 6.5 73 2.2 NW 20 35 11 19 1013.7 1013.7 0.0
18/04:00am 11.3 7.3 6.8 74 2.2 NW 17 32 9 17 1014.0 1014.0 0.0
18/03:30am 11.4 8.3 7.1 75 2.1 WNW 13 32 7 17 1014.0 1014.0 0.0
18/03:00am 11.3 6.4 7.0 75 2.1 WNW 22 33 12 18 1014.2 1014.2 0.0
18/02:30am 10.8 6.9 6.9 77 1.9 WNW 17 26 9 14 1014.6 1014.5 0.0
18/02:00am 10.8 7.2 6.6 75 2.0 WNW 15 22 8 12 1015.1 1015.0 0.0
18/01:30am 10.9 7.3 6.6 75 2.1 WNW 15 19 8 10 1015.4 1015.3 0.0
18/01:00am 11.3 7.7 6.6 73 2.2 WNW 15 30 8 16 1015.3 1015.2 0.0
18/12:30am 11.7 6.7 6.6 71 2.5 WNW 22 41 12 22 1015.3 1015.2 0.0
18/12:00am 11.5 6.6 7.0 74 2.2 WNW 22 37 12 20 1015.5 1015.4 0.0
 
Date/Time
EST
Temp
°C
App
Temp
°C
Dew
Point
°C
Rel
Hum
%
Delta-T
°C
Wind Press
QNH
hPa
Press
MSL
hPa
Rain since
9am
mm
Dir  Spd
km/h
Gust
km/h
Spd
kts
Gust
kts
17/11:30pm 11.4 6.9 7.1 75 2.1 WNW 20 32 11 17 1015.7 1015.6 0.0
17/11:00pm 11.3 7.1 7.4 77 1.9 NW 19 28 10 15 1016.0 1015.9 0.0
17/10:30pm 11.2 7.0 7.3 77 1.9 WNW 19 26 10 14 1016.2 1016.1 0.0
17/10:00pm 11.8 9.5 7.5 75 2.1 WSW 9 24 5 13 1016.2 1016.1 0.0
17/09:30pm 12.0 9.0 7.5 74 2.2 SSW 13 30 7 16 1016.3 1016.2 0.0
17/09:00pm 12.1 9.9 7.8 75 2.1 SW 9 30 5 16 1016.2 1016.1 0.0
17/08:30pm 12.2 10.2 7.3 72 2.4 NE 7 22 4 12 1016.0 1015.9 0.0
17/08:00pm 12.2 9.4 8.7 79 1.8 W 13 30 7 16 1016.2 1016.1 0.0
17/07:30pm 11.9 9.4 9.8 87 1.1 WSW 13 28 7 15 1016.4 1016.3 0.0
17/07:00pm 11.8 10.5 9.9 88 1.0 SW 7 24 4 13 1016.4 1016.3 0.0
17/06:30pm 11.7 10.0 9.8 88 1.0 S 9 26 5 14 1016.0 1015.9 0.0
17/06:00pm 12.4 11.3 10.1 86 1.2 N 6 13 3 7 1016.1 1016.0 0.0
17/05:30pm 12.1 10.2 10.5 90 0.8 W 11 20 6 11 1015.7 1015.6 0.0
17/05:00pm 12.1 9.6 9.8 86 1.2 WSW 13 30 7 16 1015.5 1015.4 0.0
17/04:30pm 12.4 10.7 10.0 85 1.2 WSW 9 24 5 13 1015.4 1015.3 0.0
17/04:00pm 12.8 10.8 10.3 85 1.3 SW 11 32 6 17 1015.2 1015.1 0.0
17/03:30pm 12.2 9.1 10.3 88 1.0 SW 17 43 9 23 1015.0 1014.9 0.0
17/03:00pm 12.1 9.4 10.5 90 0.8 SSW 15 46 8 25 1014.9 1014.8 0.0
17/02:30pm 12.9 10.8 11.1 89 1.0 SW 13 35 7 19 1014.8 1014.7 0.0
17/02:00pm 13.0 10.0 10.5 85 1.3 SW 17 33 9 18 1015.0 1014.9 0.0
17/01:30pm 13.3 11.9 9.4 77 2.0 SW 7 20 4 11 1015.2 1015.1 0.0
17/01:00pm 13.6 11.3 9.1 74 2.3 WNW 11 35 6 19 1015.1 1015.0 0.0
17/12:30pm 13.8 11.6 9.3 74 2.3 NW 11 32 6 17 1015.3 1015.2 0.0
17/12:00pm 13.4 10.6 8.5 72 2.5 WNW 13 35 7 19 1015.4 1015.3 0.0
17/11:30am 14.9 12.4 8.4 65 3.3 WNW 11 43 6 23 1015.5 1015.4 0.0
17/11:00am 14.1 9.9 7.6 65 3.2 WSW 19 41 10 22 1015.4 1015.3 0.0
17/10:30am 13.8 9.9 7.3 65 3.2 W 17 35 9 19 1015.4 1015.3 0.0
17/10:00am 13.3 10.9 7.1 66 3.0 WSW 9 30 5 16 1015.4 1015.3 0.0
17/09:30am 12.8 10.0 6.8 67 2.9 NW 11 33 6 18 1015.8 1015.7 0.0
17/09:00am 12.3 7.2 5.9 65 3.0 WNW 22 37 12 20 1015.7 1015.6 0.0
17/08:30am 12.0 5.6 5.4 64 3.1 WNW 28 41 15 22 1015.8 1015.7 0.0
17/08:00am 11.6 5.2 5.3 65 2.9 WNW 28 43 15 23 1015.8 1015.7 0.0
17/07:30am 11.6 4.8 5.0 64 3.1 WNW 30 44 16 24 1015.7 1015.6 0.0
17/07:00am 11.5 6.7 5.4 66 2.8 WNW 20 39 11 21 1015.7 1015.6 0.0
17/06:43am 11.2 4.7 4.7 64 3.0 NW 28 48 15 26 1015.6 1015.5 0.0
17/06:30am 11.1 5.3 4.6 64 3.0 NW 24 39 13 21 1015.7 1015.6 0.0
17/06:00am 10.9 4.3 4.4 64 3.0 NW 28 39 15 21 1015.5 1015.4 0.0
17/05:30am 11.0 5.5 4.0 62 3.2 WNW 22 39 12 21 1015.9 1015.8 0.0
17/05:00am 10.6 5.7 3.9 63 3.0 WNW 19 33 10 18 1016.0 1015.9 0.0
17/04:30am 10.6 5.5 3.9 63 3.0 WNW 20 35 11 19 1016.3 1016.2 0.0
17/04:00am 10.4 4.5 3.7 63 3.0 WNW 24 41 13 22 1015.8 1015.7 0.0
17/03:30am 10.2 5.0 3.7 64 2.9 WNW 20 37 11 20 1015.7 1015.6 0.0
17/03:00am 10.1 6.3 3.8 65 2.8 WNW 13 41 7 22 1015.7 1015.6 0.0
17/02:30am 9.1 5.6 3.7 69 2.4 NNW 11 24 6 13 1016.4 1016.3 0.0

Other formats

Comma delimited format used in spreadsheet applications
http://www.bom.gov.au/fwo/IDT60801/IDT60801.95986.axf

JavaScript Object Notation format (JSON) in row-major order
http://www.bom.gov.au/fwo/IDT60801/IDT60801.95986.json

Data quality

Most of these data are generated automatically and are frequently updated. Quality checks on data are not normally performed. It is possible for incorrect values to appear. Refer to information at About Latest Weather Observations and please check the disclaimer before using these data.